Time;durP1;ratioP1;P1;durP2;ratioP2;P2;SDS_P1;SDS_P2;PMS_P1;PMS_P2;Temp;Humidity;BMP_temperature;BMP_pressure;BME280_temperature;BME280_humidity;BME280_pressure;Samples;Min_cycle;Max_cycle;Signal;HPM_P1;HPM_P2
2021/07/26 00:03:25;;;;;;;6.63;3.70;;;20.30;99.90;;;;;;12634663;28;20496;-40
2021/07/26 00:09:27;;;;;;;6.03;3.72;;;20.10;99.90;;;;;;12638454;28;20056;-40
2021/07/26 00:15:29;;;;;;;6.80;4.18;;;20.00;99.90;;;;;;12633619;28;20051;-40
2021/07/26 00:21:31;;;;;;;5.97;4.10;;;19.80;99.90;;;;;;12634764;28;20055;-40
2021/07/26 00:27:33;;;;;;;7.95;4.10;;;19.70;99.90;;;;;;12638054;28;20051;-41
2021/07/26 00:34:15;;;;;;;6.25;3.67;;;19.60;99.90;;;;;;12637241;28;20058;-41
2021/07/26 00:40:17;;;;;;;6.68;4.05;;;19.50;99.90;;;;;;12635128;28;20428;-41
2021/07/26 00:46:19;;;;;;;7.47;4.25;;;19.30;99.90;;;;;;12632175;28;20093;-40
2021/07/26 00:52:21;;;;;;;6.93;3.63;;;19.20;99.90;;;;;;12632985;28;20043;-41
2021/07/26 00:58:24;;;;;;;5.75;4.03;;;19.20;99.90;;;;;;12633942;28;20050;-40
2021/07/26 01:04:26;;;;;;;7.78;3.75;;;18.90;99.90;;;;;;12643440;28;20091;-40
2021/07/26 01:10:28;;;;;;;5.88;3.78;;;18.60;99.90;;;;;;12650007;28;20100;-42
2021/07/26 01:16:30;;;;;;;6.50;3.80;;;18.60;99.90;;;;;;12648981;28;20574;-40
2021/07/26 01:22:32;;;;;;;7.00;3.75;;;18.60;99.90;;;;;;12640905;28;20130;-40
2021/07/26 01:28:37;;;;;;;5.60;3.58;;;18.70;99.90;;;;;;12625509;28;20056;-40
2021/07/26 01:34:38;;;;;;;9.20;4.18;;;19.00;99.90;;;;;;12643676;28;20096;-40
2021/07/26 01:40:41;;;;;;;4.88;3.75;;;19.00;99.90;;;;;;12642394;28;20081;-40
2021/07/26 01:47:01;;;;;;;7.85;4.30;;;19.00;99.90;;;;;;12641673;28;20063;-40
2021/07/26 01:53:03;;;;;;;5.35;4.00;;;19.10;99.90;;;;;;12642101;28;20044;-40
2021/07/26 01:59:06;;;;;;;9.43;4.38;;;19.00;99.90;;;;;;12647499;28;20048;-40
2021/07/26 02:05:09;;;;;;;5.85;3.83;;;18.90;99.90;;;;;;12640090;28;20135;-40
2021/07/26 02:11:12;;;;;;;5.37;4.00;;;18.70;99.90;;;;;;12642566;28;20868;-40
2021/07/26 02:17:15;;;;;;;7.85;3.88;;;18.50;99.90;;;;;;12641520;28;20453;-41
2021/07/26 02:23:17;;;;;;;5.18;4.15;;;18.00;99.90;;;;;;12626696;28;20051;-40
2021/07/26 02:29:19;;;;;;;6.63;3.90;;;17.60;99.90;;;;;;12642831;28;20059;-40
2021/07/26 02:35:21;;;;;;;5.60;4.10;;;17.80;99.90;;;;;;12640900;28;20101;-40
2021/07/26 02:41:22;;;;;;;7.80;4.13;;;18.30;99.90;;;;;;12641650;28;20389;-39
2021/07/26 02:47:24;;;;;;;6.93;3.95;;;18.60;99.90;;;;;;12631016;27;20894;-40
2021/07/26 02:53:26;;;;;;;5.32;3.53;;;18.60;99.90;;;;;;12634116;28;20044;-40
2021/07/26 02:59:28;;;;;;;5.38;3.28;;;18.40;99.90;;;;;;12637937;28;20599;-40
2021/07/26 03:05:33;;;;;;;5.45;3.20;;;18.40;99.90;;;;;;12638869;28;20764;-40
2021/07/26 03:11:36;;;;;;;4.97;2.85;;;18.50;99.90;;;;;;12642578;28;20435;-41
2021/07/26 03:17:38;;;;;;;4.90;3.27;;;18.70;99.90;;;;;;12642797;28;20088;-41
2021/07/26 03:23:40;;;;;;;7.97;3.10;;;18.80;99.90;;;;;;12633309;28;20377;-40
2021/07/26 03:29:41;;;;;;;5.57;3.47;;;19.00;99.90;;;;;;12641048;28;20108;-40
2021/07/26 03:35:43;;;;;;;8.02;3.00;;;19.20;99.90;;;;;;12636711;28;20048;-40
2021/07/26 03:41:45;;;;;;;7.68;3.22;;;19.00;99.90;;;;;;12629110;28;21101;-41
2021/07/26 03:47:47;;;;;;;4.53;2.65;;;18.90;99.90;;;;;;12634248;28;20048;-41
2021/07/26 03:53:51;;;;;;;3.42;2.40;;;19.00;99.90;;;;;;12628832;28;20044;-41
2021/07/26 03:59:53;;;;;;;;;;;18.90;99.90;;;;;;12632827;28;20804;-41
2021/07/26 04:06:05;;;;;;;5.32;3.13;;;18.80;99.90;;;;;;12631597;28;19924;-40
2021/07/26 04:12:11;;;;;;;7.40;3.20;;;18.90;99.90;;;;;;12635317;28;20048;-40
2021/07/26 04:18:13;;;;;;;5.97;2.97;;;18.80;99.90;;;;;;12632644;28;20051;-40
2021/07/26 04:24:15;;;;;;;4.70;3.15;;;18.80;99.90;;;;;;12629167;28;20097;-40
2021/07/26 04:30:17;;;;;;;5.07;2.95;;;18.80;99.90;;;;;;12636608;28;20901;-41
2021/07/26 04:36:19;;;;;;;4.68;2.72;;;18.90;99.90;;;;;;12641041;28;20101;-40
2021/07/26 04:42:20;;;;;;;5.82;2.85;;;18.90;99.90;;;;;;12638490;28;20483;-40
2021/07/26 04:48:23;;;;;;;4.45;2.83;;;18.90;99.90;;;;;;12639770;28;20048;-40
2021/07/26 04:54:25;;;;;;;5.20;3.38;;;19.00;99.90;;;;;;12636179;28;20048;-42
2021/07/26 05:00:27;;;;;;;4.93;3.10;;;19.10;99.90;;;;;;12630455;28;20048;-40
2021/07/26 05:06:29;;;;;;;4.53;3.38;;;19.10;99.90;;;;;;12639131;28;20067;-42
2021/07/26 05:12:30;;;;;;;7.38;3.67;;;19.10;99.90;;;;;;12635838;28;20070;-43
2021/07/26 05:18:32;;;;;;;5.95;3.40;;;19.00;99.90;;;;;;12638149;28;20204;-43
2021/07/26 05:24:34;;;;;;;4.80;3.35;;;19.10;99.90;;;;;;12634926;28;20120;-42
2021/07/26 05:30:37;;;;;;;5.97;3.30;;;19.10;99.90;;;;;;12631505;28;20055;-43
2021/07/26 05:36:40;;;;;;;5.65;2.95;;;19.20;99.90;;;;;;12636674;28;20056;-44
2021/07/26 05:42:42;;;;;;;5.73;3.27;;;19.20;99.90;;;;;;12637924;28;20407;-40
2021/07/26 05:48:43;;;;;;;4.97;3.10;;;19.30;99.90;;;;;;12643410;28;20667;-40
2021/07/26 05:54:45;;;;;;;6.50;2.90;;;19.40;99.90;;;;;;12646524;28;20507;-40
2021/07/26 06:00:58;;;;;;;6.03;3.42;;;19.60;99.90;;;;;;12644679;28;20101;-40
2021/07/26 06:07:00;;;;;;;5.35;3.45;;;19.80;99.90;;;;;;12649117;28;20083;-40
2021/07/26 06:13:02;;;;;;;4.70;3.20;;;19.90;99.90;;;;;;12643317;28;20450;-40
2021/07/26 06:19:09;;;;;;;5.32;3.10;;;20.00;99.90;;;;;;12643517;28;20048;-40
2021/07/26 06:25:12;;;;;;;5.25;2.60;;;20.20;99.90;;;;;;12644090;28;20048;-41
2021/07/26 06:31:14;;;;;;;6.65;3.00;;;20.40;99.90;;;;;;12642191;28;20059;-41
2021/07/26 06:37:16;;;;;;;3.75;2.70;;;20.50;99.90;;;;;;12645687;28;20458;-43
2021/07/26 06:43:17;;;;;;;6.00;2.65;;;20.70;99.90;;;;;;12645570;28;20052;-44
2021/07/26 06:49:19;;;;;;;5.63;2.80;;;20.80;99.90;;;;;;12646113;28;20139;-44
2021/07/26 06:55:21;;;;;;;7.03;2.92;;;20.90;99.90;;;;;;12644737;28;20047;-43
2021/07/26 07:01:23;;;;;;;6.40;2.78;;;21.00;99.90;;;;;;12644513;28;20494;-43
2021/07/26 07:07:25;;;;;;;4.25;2.60;;;21.20;99.90;;;;;;12628140;28;20052;-43
2021/07/26 07:13:27;;;;;;;5.82;2.35;;;21.30;99.90;;;;;;12644286;28;20139;-44
2021/07/26 07:19:28;;;;;;;4.97;2.55;;;21.40;99.90;;;;;;12641919;28;20153;-42
2021/07/26 07:25:30;;;;;;;5.85;2.97;;;21.60;99.90;;;;;;12643161;28;20051;-42
2021/07/26 07:31:37;;;;;;;4.45;1.95;;;21.70;99.90;;;;;;12641963;28;20097;-40
2021/07/26 07:37:39;;;;;;;3.58;2.25;;;21.70;99.90;;;;;;12648035;28;20592;-40
2021/07/26 07:43:41;;;;;;;3.88;2.15;;;22.00;99.90;;;;;;12633382;28;20055;-41
2021/07/26 07:49:43;;;;;;;3.70;2.10;;;22.10;99.90;;;;;;12638636;28;20093;-41
2021/07/26 07:55:44;;;;;;;5.28;2.50;;;22.00;99.90;;;;;;12638359;28;20048;-40
2021/07/26 08:01:46;;;;;;;9.43;2.50;;;22.10;99.90;;;;;;12638124;28;20052;-41
2021/07/26 08:07:48;;;;;;;5.05;2.50;;;22.20;99.90;;;;;;12646032;28;20059;-41
2021/07/26 08:13:50;;;;;;;6.88;2.67;;;22.30;99.90;;;;;;12637796;28;20044;-40
2021/07/26 08:19:52;;;;;;;5.05;3.00;;;22.60;99.90;;;;;;12637782;28;20044;-41
2021/07/26 08:25:53;;;;;;;5.32;2.75;;;22.60;99.90;;;;;;12639442;28;20100;-40
2021/07/26 08:31:55;;;;;;;4.57;3.00;;;22.90;99.90;;;;;;12637497;28;20048;-40
2021/07/26 08:37:57;;;;;;;4.70;2.33;;;23.00;99.90;;;;;;12638660;28;20047;-41
2021/07/26 08:44:00;;;;;;;5.53;2.83;;;23.10;99.90;;;;;;12638583;28;20288;-40
2021/07/26 08:50:06;;;;;;;5.63;2.60;;;23.20;99.90;;;;;;12639965;28;20499;-40
2021/07/26 08:56:08;;;;;;;4.35;2.75;;;23.40;99.90;;;;;;12620054;28;20040;-40
2021/07/26 09:02:10;;;;;;;5.20;2.58;;;23.50;99.90;;;;;;12636579;28;20754;-40
2021/07/26 09:08:12;;;;;;;5.25;2.58;;;23.50;99.90;;;;;;12639374;28;20051;-41
2021/07/26 09:14:40;;;;;;;7.47;2.80;;;23.70;99.90;;;;;;12621152;28;20044;-40
2021/07/26 09:20:51;;;;;;;6.47;2.50;;;24.00;99.90;;;;;;12642834;28;20167;-40
2021/07/26 09:26:54;;;;;;;5.32;2.60;;;24.20;99.90;;;;;;12647691;28;20047;-41
2021/07/26 09:32:56;;;;;;;;;;;24.40;99.90;;;;;;12645798;28;20077;-41
2021/07/26 09:38:58;;;;;;;3.42;2.30;;;24.30;99.90;;;;;;12650771;28;19931;-42
2021/07/26 09:45:21;;;;;;;4.63;2.40;;;24.50;99.90;;;;;;12647693;28;20101;-41
2021/07/26 09:51:24;;;;;;;3.70;2.03;;;24.70;99.90;;;;;;12640349;28;20470;-40
2021/07/26 09:57:28;;;;;;;4.97;2.20;;;24.90;99.90;;;;;;12642230;28;20051;-41
2021/07/26 10:03:30;;;;;;;5.13;1.95;;;25.10;99.90;;;;;;12640214;28;20052;-40
2021/07/26 10:09:32;;;;;;;4.90;2.80;;;25.10;99.90;;;;;;12648781;28;20052;-40
2021/07/26 10:15:35;;;;;;;3.35;2.17;;;25.40;99.90;;;;;;12642925;28;20247;-41
2021/07/26 10:21:37;;;;;;;;;;;25.70;99.90;;;;;;12642313;28;20488;-40
2021/07/26 10:27:39;;;;;;;3.80;2.35;;;25.90;99.90;;;;;;12641138;28;20393;-41
2021/07/26 10:34:04;;;;;;;4.05;2.20;;;26.00;99.90;;;;;;12641107;28;20048;-43
2021/07/26 10:40:29;;;;;;;3.88;2.22;;;25.80;99.90;;;;;;12641008;28;20177;-40
2021/07/26 10:46:50;;;;;;;3.58;2.00;;;25.80;99.90;;;;;;12641373;28;20361;-41
2021/07/26 10:52:52;;;;;;;3.40;2.20;;;25.90;99.90;;;;;;12645188;28;20843;-42
2021/07/26 10:59:01;;;;;;;4.25;2.15;;;26.00;99.90;;;;;;12638213;28;20089;-41
2021/07/26 11:05:28;;;;;;;3.85;2.08;;;26.80;99.90;;;;;;12639525;28;20059;-41
2021/07/26 11:11:40;;;;;;;4.00;2.35;;;26.50;99.90;;;;;;12642594;28;20080;-43
2021/07/26 11:18:13;;;;;;;3.87;2.20;;;25.90;99.90;;;;;;12740417;22;20094;-39
2021/07/26 11:24:40;;;;;;;6.57;2.67;;;25.90;99.90;;;;;;12522771;28;20102;-35
2021/07/26 11:30:45;;;;;;;4.07;2.17;;;26.10;99.90;;;;;;12521186;28;20469;-35
2021/07/26 11:37:09;;;;;;;3.60;2.20;;;27.00;99.90;;;;;;12523429;28;20059;-37
2021/07/26 11:43:11;;;;;;;5.03;2.20;;;27.90;99.90;;;;;;12511885;28;20762;-37
2021/07/26 11:49:17;;;;;;;3.80;2.50;;;27.50;99.90;;;;;;12517172;28;20095;-37
2021/07/26 11:55:20;;;;;;;5.53;2.40;;;27.00;99.90;;;;;;12508174;28;20086;-36
2021/07/26 12:01:22;;;;;;;3.97;2.20;;;26.40;99.90;;;;;;12518975;28;20049;-36
2021/07/26 12:07:43;;;;;;;5.50;2.50;;;26.20;99.90;;;;;;12517572;28;20110;-36
2021/07/26 12:13:45;;;;;;;6.53;2.88;;;25.60;99.90;;;;;;12520965;28;20110;-35
2021/07/26 12:19:58;;;;;;;3.85;2.35;;;26.00;99.90;;;;;;12518198;28;20049;-36
2021/07/26 12:26:09;;;;;;;4.97;2.58;;;26.80;99.90;;;;;;12523627;28;20053;-35
2021/07/26 12:32:11;;;;;;;3.92;2.50;;;26.70;99.90;;;;;;12509284;28;20147;-36
2021/07/26 12:38:18;;;;;;;4.47;2.67;;;26.50;99.90;;;;;;12511067;28;20042;-36
2021/07/26 12:44:27;;;;;;;3.47;2.42;;;26.10;99.90;;;;;;12524413;28;20102;-35
2021/07/26 12:50:31;;;;;;;3.38;2.42;;;26.30;99.90;;;;;;12518902;28;20142;-42
2021/07/26 12:56:33;;;;;;;3.78;2.15;;;25.90;99.90;;;;;;12516323;28;20132;-36
2021/07/26 13:02:35;;;;;;;6.10;2.47;;;25.70;99.90;;;;;;12531100;28;20136;-36
2021/07/26 13:08:37;;;;;;;6.25;2.60;;;25.80;99.90;;;;;;12527697;28;20099;-36
2021/07/26 13:14:39;;;;;;;3.20;2.10;;;26.40;99.90;;;;;;12528384;28;20052;-36
2021/07/26 13:20:42;;;;;;;4.17;2.10;;;27.10;99.90;;;;;;12521478;28;20131;-35
2021/07/26 13:26:44;;;;;;;3.95;2.00;;;26.90;99.90;;;;;;12528526;28;20476;-36
2021/07/26 13:32:47;;;;;;;3.85;1.95;;;27.10;99.90;;;;;;12531900;28;20080;-36
2021/07/26 13:38:49;;;;;;;3.30;2.38;;;26.10;99.90;;;;;;12527076;28;20040;-35
2021/07/26 13:44:52;;;;;;;4.03;2.00;;;25.70;99.90;;;;;;12521793;28;20057;-36
2021/07/26 13:50:54;;;;;;;3.87;2.00;;;25.60;99.90;;;;;;12517260;28;20045;-37
2021/07/26 13:56:56;;;;;;;2.35;1.50;;;26.30;99.90;;;;;;12516638;28;20052;-36
2021/07/26 14:02:58;;;;;;;4.43;1.98;;;27.40;99.90;;;;;;12516694;28;20089;-36
2021/07/26 14:09:00;;;;;;;5.30;1.95;;;27.60;99.90;;;;;;12531793;28;20374;-36
2021/07/26 14:15:03;;;;;;;2.43;1.37;;;28.30;99.90;;;;;;12527528;28;20052;-36
2021/07/26 14:21:04;;;;;;;3.03;1.75;;;28.20;99.90;;;;;;12525905;28;20045;-36
2021/07/26 14:27:06;;;;;;;5.70;1.90;;;28.00;99.90;;;;;;12522086;28;20056;-36
2021/07/26 14:33:08;;;;;;;4.43;1.80;;;27.30;99.90;;;;;;12512773;28;20076;-36
2021/07/26 14:39:11;;;;;;;7.30;2.17;;;27.40;99.90;;;;;;12519857;28;20676;-36
2021/07/26 14:45:13;;;;;;;;;;;26.90;99.90;;;;;;12511937;28;20103;-36
2021/07/26 14:51:15;;;;;;;4.45;2.30;;;26.40;99.90;;;;;;12520968;28;19925;-35
2021/07/26 14:57:17;;;;;;;2.85;1.75;;;26.10;99.90;;;;;;12520187;28;20087;-35
2021/07/26 15:03:19;;;;;;;6.38;2.30;;;26.00;99.90;;;;;;12523658;28;20047;-36
2021/07/26 15:09:21;;;;;;;3.50;1.53;;;26.20;99.90;;;;;;12524321;28;20582;-35
2021/07/26 15:15:23;;;;;;;3.25;1.70;;;26.60;99.90;;;;;;12518379;28;20132;-35
2021/07/26 15:21:25;;;;;;;2.30;1.33;;;27.00;99.90;;;;;;12516440;28;20136;-36
2021/07/26 15:27:29;;;;;;;2.20;1.50;;;27.20;99.90;;;;;;12516471;28;20057;-36
2021/07/26 15:33:30;;;;;;;2.53;1.40;;;27.20;99.90;;;;;;12521566;28;20041;-36
2021/07/26 15:39:33;;;;;;;2.67;1.13;;;27.10;99.90;;;;;;12520919;28;20083;-35
2021/07/26 15:45:35;;;;;;;2.50;1.30;;;26.80;99.90;;;;;;12520979;28;20518;-36
2021/07/26 15:51:37;;;;;;;2.47;1.37;;;26.90;99.90;;;;;;12520635;28;20105;-36
2021/07/26 15:57:39;;;;;;;2.13;1.50;;;27.40;99.90;;;;;;12518876;28;20135;-36
2021/07/26 16:03:41;;;;;;;3.00;1.30;;;27.40;99.90;;;;;;12518938;28;20049;-36
2021/07/26 16:09:43;;;;;;;3.20;1.60;;;27.30;99.90;;;;;;12519194;28;20103;-36
2021/07/26 16:15:46;;;;;;;3.17;1.40;;;27.20;99.90;;;;;;12520426;28;20879;-36
2021/07/26 16:21:48;;;;;;;6.50;1.50;;;27.30;99.90;;;;;;12522195;28;20481;-36
2021/07/26 16:27:50;;;;;;;2.80;1.50;;;27.50;99.90;;;;;;12506600;28;20374;-37
2021/07/26 16:33:53;;;;;;;2.53;1.73;;;27.30;99.90;;;;;;12516678;28;20508;-36
2021/07/26 16:39:54;;;;;;;2.65;1.80;;;27.20;99.90;;;;;;12524258;28;20348;-36
2021/07/26 16:45:56;;;;;;;4.97;1.70;;;27.50;99.90;;;;;;12522636;28;20132;-37
2021/07/26 16:52:00;;;;;;;2.90;1.52;;;27.70;99.90;;;;;;12510665;28;20045;-36
2021/07/26 16:58:02;;;;;;;4.25;1.60;;;27.70;99.90;;;;;;12516771;28;20444;-35
2021/07/26 17:04:06;;;;;;;2.30;1.20;;;27.70;99.90;;;;;;12514784;28;20114;-35
2021/07/26 17:10:08;;;;;;;3.25;1.48;;;28.30;99.90;;;;;;12514804;28;20053;-35
2021/07/26 17:16:10;;;;;;;3.92;1.80;;;28.40;99.90;;;;;;12515550;28;20044;-37
2021/07/26 17:22:13;;;;;;;2.83;1.50;;;28.60;99.90;;;;;;12498596;28;20044;-35
2021/07/26 17:28:17;;;;;;;2.58;1.50;;;28.40;99.90;;;;;;12505173;28;20049;-35
2021/07/26 17:34:19;;;;;;;3.30;1.50;;;27.20;99.90;;;;;;12520143;28;20045;-36
2021/07/26 17:40:21;;;;;;;5.88;1.80;;;27.30;99.90;;;;;;12517948;28;20044;-35
2021/07/26 17:46:23;;;;;;;3.58;1.65;;;26.00;99.90;;;;;;12527717;28;20110;-36
2021/07/26 17:52:25;;;;;;;5.10;2.30;;;25.00;99.90;;;;;;12523715;28;20053;-35
2021/07/26 17:58:27;;;;;;;4.68;1.80;;;24.60;99.90;;;;;;12509579;28;20098;-36
2021/07/26 18:04:29;;;;;;;6.72;2.10;;;24.20;99.90;;;;;;12526787;28;20056;-35
2021/07/26 18:10:31;;;;;;;6.05;2.10;;;24.10;99.90;;;;;;12529726;28;20048;-36
2021/07/26 18:16:34;;;;;;;3.63;2.20;;;23.40;99.90;;;;;;12535161;28;20053;-35
2021/07/26 18:22:38;;;;;;;6.30;2.33;;;23.10;99.90;;;;;;12527253;28;20064;-36
2021/07/26 18:28:40;;;;;;;5.90;2.45;;;22.70;99.90;;;;;;12521686;28;20045;-36
2021/07/26 18:34:42;;;;;;;6.88;2.60;;;22.00;99.90;;;;;;12531774;28;20547;-35
2021/07/26 18:40:43;;;;;;;6.55;2.30;;;21.40;99.90;;;;;;12518873;28;20110;-35
2021/07/26 18:46:45;;;;;;;5.10;2.40;;;21.50;99.90;;;;;;12506640;28;20053;-36
2021/07/26 18:52:47;;;;;;;5.03;2.65;;;21.20;99.90;;;;;;12520095;28;20480;-35
2021/07/26 18:58:49;;;;;;;4.35;2.30;;;20.60;99.90;;;;;;12527275;28;20045;-35
2021/07/26 19:04:51;;;;;;;6.55;2.47;;;20.60;99.90;;;;;;12527113;28;20099;-36
2021/07/26 19:10:53;;;;;;;4.30;2.60;;;20.70;99.90;;;;;;12529825;28;20052;-35
2021/07/26 19:16:56;;;;;;;3.50;2.10;;;20.90;99.90;;;;;;12522792;28;20603;-35
2021/07/26 19:22:59;;;;;;;5.75;2.60;;;20.80;99.90;;;;;;12524098;28;20466;-36
2021/07/26 19:29:01;;;;;;;7.40;2.58;;;20.60;99.90;;;;;;12522970;28;20140;-35
2021/07/26 19:35:03;;;;;;;4.68;2.17;;;20.60;99.90;;;;;;12527949;28;20061;-35
2021/07/26 19:41:06;;;;;;;4.50;2.33;;;20.60;99.90;;;;;;12522732;28;20052;-35
2021/07/26 19:47:11;;;;;;;7.93;2.78;;;20.40;99.90;;;;;;12516582;28;20049;-35
2021/07/26 19:53:12;;;;;;;6.10;2.38;;;20.30;99.90;;;;;;12514912;28;20053;-38
2021/07/26 19:59:15;;;;;;;4.80;2.33;;;20.20;99.90;;;;;;12520678;28;20056;-35
2021/07/26 20:05:18;;;;;;;4.25;2.00;;;20.20;99.90;;;;;;12528508;28;20122;-35
2021/07/26 20:11:20;;;;;;;3.93;2.00;;;20.20;99.90;;;;;;12520670;28;20514;-36
2021/07/26 20:17:22;;;;;;;4.78;2.38;;;20.10;99.90;;;;;;12531300;28;20372;-35
2021/07/26 20:23:25;;;;;;;3.05;1.95;;;20.10;99.90;;;;;;12521934;28;20140;-35
2021/07/26 20:29:26;;;;;;;4.28;1.92;;;20.10;99.90;;;;;;12524596;28;20102;-36
2021/07/26 20:35:28;;;;;;;4.47;2.20;;;20.20;99.90;;;;;;12527520;28;20435;-35
2021/07/26 20:41:30;;;;;;;4.65;2.13;;;20.20;99.90;;;;;;12528895;28;20053;-35
2021/07/26 20:47:32;;;;;;;3.47;2.28;;;20.20;99.90;;;;;;12522882;28;20113;-36
2021/07/26 20:53:35;;;;;;;6.40;2.22;;;20.00;99.90;;;;;;12519264;28;20413;-35
2021/07/26 20:59:37;;;;;;;3.00;2.20;;;19.80;99.90;;;;;;12524852;28;20048;-35
2021/07/26 21:05:39;;;;;;;4.45;2.65;;;19.80;99.90;;;;;;12528000;28;20101;-35
2021/07/26 21:11:41;;;;;;;4.50;2.20;;;19.80;99.90;;;;;;12523093;28;20093;-35
2021/07/26 21:17:43;;;;;;;3.58;2.00;;;19.70;99.90;;;;;;12525974;28;20056;-36
2021/07/26 21:23:45;;;;;;;3.42;2.25;;;19.70;99.90;;;;;;12531715;28;20052;-35
2021/07/26 21:29:47;;;;;;;3.13;2.15;;;19.70;99.90;;;;;;12532936;28;20733;-35
2021/07/26 21:35:49;;;;;;;3.60;2.30;;;19.80;99.90;;;;;;12531873;28;20871;-35
2021/07/26 21:41:52;;;;;;;4.47;2.22;;;19.70;99.90;;;;;;12528985;28;20101;-36
2021/07/26 21:47:53;;;;;;;4.18;2.45;;;19.70;99.90;;;;;;12537443;28;20152;-35
2021/07/26 21:53:57;;;;;;;5.63;2.42;;;19.70;99.90;;;;;;12531061;28;20057;-35
2021/07/26 22:00:00;;;;;;;3.85;2.25;;;19.60;99.90;;;;;;12534151;28;20060;-35
2021/07/26 22:06:13;;;;;;;6.13;2.42;;;19.80;99.90;;;;;;12536723;28;20448;-36
2021/07/26 22:12:15;;;;;;;3.72;2.10;;;19.70;99.90;;;;;;12536228;28;20163;-36
2021/07/26 22:18:17;;;;;;;4.43;2.80;;;19.80;99.90;;;;;;12528840;28;20048;-35
2021/07/26 22:24:19;;;;;;;4.57;2.60;;;19.80;99.90;;;;;;12525506;28;20063;-35
2021/07/26 22:30:21;;;;;;;4.15;2.58;;;19.90;99.90;;;;;;12529367;28;20098;-35
2021/07/26 22:36:23;;;;;;;3.90;2.60;;;19.90;99.90;;;;;;12528185;28;20563;-35
2021/07/26 22:42:24;;;;;;;3.72;2.67;;;19.70;99.90;;;;;;12521301;28;20041;-35
2021/07/26 22:48:26;;;;;;;4.35;2.70;;;19.60;99.90;;;;;;12534415;28;20385;-35
2021/07/26 22:54:29;;;;;;;4.53;2.88;;;19.60;99.90;;;;;;12528478;28;20121;-36
2021/07/26 23:00:31;;;;;;;7.30;2.97;;;19.60;99.90;;;;;;12528577;28;20048;-35
2021/07/26 23:06:33;;;;;;;4.78;2.70;;;19.60;99.90;;;;;;12533906;28;20052;-35
2021/07/26 23:12:36;;;;;;;7.37;3.33;;;19.60;99.90;;;;;;12532278;28;20055;-35
2021/07/26 23:18:37;;;;;;;5.30;2.97;;;19.50;99.90;;;;;;12528502;28;20447;-35
2021/07/26 23:24:39;;;;;;;4.32;3.17;;;19.50;99.90;;;;;;12532896;28;20186;-35
2021/07/26 23:30:41;;;;;;;7.35;3.63;;;19.40;99.90;;;;;;12528453;28;20493;-35
2021/07/26 23:36:43;;;;;;;8.85;3.35;;;19.40;99.90;;;;;;12521867;28;20048;-37
2021/07/26 23:42:45;;;;;;;5.55;3.28;;;19.40;99.90;;;;;;12532870;28;20106;-35
2021/07/26 23:48:47;;;;;;;7.45;3.80;;;19.30;99.90;;;;;;12534439;28;20045;-37
2021/07/26 23:54:49;;;;;;;8.77;3.60;;;19.10;99.90;;;;;;12529087;28;20053;-37
